Time;durP1;ratioP1;P1;durP2;ratioP2;P2;SDS_P1;SDS_P2;PMS_P1;PMS_P2;Temp;Humidity;BMP_temperature;BMP_pressure;BME280_temperature;BME280_humidity;BME280_pressure;Samples;Min_cycle;Max_cycle;Signal;HPM_P1;HPM_P2
2024/01/16 00:01:10;;;;;;;2.83;1.70;;;;;;;1.79;96.75;100711.28;3608658;39;20087;-66
2024/01/16 00:03:38;;;;;;;3.15;1.55;;;;;;;1.81;96.57;100720.94;3608585;39;20047;-64
2024/01/16 00:06:04;;;;;;;2.92;1.80;;;;;;;1.81;96.11;100718.28;3607870;39;20124;-63
2024/01/16 00:08:29;;;;;;;4.70;1.83;;;;;;;1.84;96.38;100719.97;3608704;39;20067;-63
2024/01/16 00:10:55;;;;;;;5.95;1.85;;;;;;;1.86;95.85;100731.38;3608966;39;20067;-63
2024/01/16 00:13:21;;;;;;;5.30;1.92;;;;;;;1.90;95.20;100726.88;3608325;39;20066;-63
2024/01/16 00:15:46;;;;;;;4.45;2.08;;;;;;;1.88;95.88;100740.19;3607826;39;20414;-63
2024/01/16 00:18:12;;;;;;;6.22;2.63;;;;;;;1.89;96.18;100736.59;3606017;39;20047;-63
2024/01/16 00:20:37;;;;;;;4.97;2.20;;;;;;;1.92;95.66;100739.16;3608461;39;20047;-63
2024/01/16 00:23:03;;;;;;;4.85;2.20;;;;;;;1.91;95.58;100739.22;3607826;39;20083;-63
2024/01/16 00:25:29;;;;;;;4.70;2.47;;;;;;;1.88;95.37;100734.00;3607565;39;20056;-64
2024/01/16 00:27:55;;;;;;;8.25;2.45;;;;;;;1.89;95.29;100741.03;3610544;39;20058;-64
2024/01/16 00:30:20;;;;;;;4.28;2.65;;;;;;;1.91;95.55;100736.56;3610066;39;20402;-64
2024/01/16 00:32:46;;;;;;;3.47;2.15;;;;;;;1.88;95.58;100734.88;3611504;39;20049;-64
2024/01/16 00:35:12;;;;;;;5.45;2.50;;;;;;;1.90;95.98;100737.47;3599348;39;20086;-64
2024/01/16 00:37:38;;;;;;;3.10;2.33;;;;;;;1.83;95.49;100720.88;3610866;39;20088;-64
2024/01/16 00:40:05;;;;;;;3.03;2.28;;;;;;;1.92;95.50;100735.66;3610279;39;20058;-64
2024/01/16 00:42:31;;;;;;;4.22;2.28;;;;;;;1.92;94.98;100736.53;3611611;39;20043;-64
2024/01/16 00:44:58;;;;;;;4.25;2.38;;;;;;;1.92;95.55;100736.53;3608918;39;20387;-64
2024/01/16 00:47:24;;;;;;;4.22;2.30;;;;;;;1.95;95.57;100733.78;3610600;39;20058;-64
2024/01/16 00:49:50;;;;;;;2.88;2.10;;;;;;;1.98;95.50;100741.66;3599263;39;20059;-64
2024/01/16 00:52:15;;;;;;;2.92;1.90;;;;;;;1.98;94.96;100746.97;3607879;39;20063;-64
2024/01/16 00:54:42;;;;;;;3.95;1.90;;;;;;;1.95;95.13;100730.28;3610109;39;20055;-64
2024/01/16 00:57:08;;;;;;;5.32;1.90;;;;;;;2.00;95.84;100737.19;3607029;39;20051;-65
2024/01/16 00:59:33;;;;;;;4.53;1.92;;;;;;;2.00;95.47;100741.63;3608477;39;20047;-64
2024/01/16 01:01:59;;;;;;;2.40;1.52;;;;;;;2.02;94.34;100738.00;3609179;39;20047;-64
2024/01/16 01:04:25;;;;;;;4.47;1.90;;;;;;;2.01;94.53;100736.28;3608429;39;21046;-65
2024/01/16 01:06:50;;;;;;;5.05;2.15;;;;;;;1.87;95.11;100706.63;3608736;39;20058;-65
2024/01/16 01:09:17;;;;;;;4.03;2.08;;;;;;;2.05;95.17;100737.03;3611257;39;20098;-64
2024/01/16 01:11:42;;;;;;;6.82;2.25;;;;;;;2.04;94.74;100743.28;3609049;39;20057;-65
2024/01/16 01:14:09;;;;;;;3.05;2.40;;;;;;;1.96;94.65;100735.50;3608370;39;20091;-64
2024/01/16 01:16:34;;;;;;;4.95;2.35;;;;;;;2.03;94.07;100745.06;3608763;39;20047;-64
2024/01/16 01:19:00;;;;;;;3.33;2.20;;;;;;;2.03;94.66;100747.72;3605881;39;20359;-64
2024/01/16 01:21:26;;;;;;;7.95;2.67;;;;;;;2.00;95.13;100739.84;3609240;39;20098;-65
2024/01/16 01:23:51;;;;;;;7.63;2.63;;;;;;;2.05;94.73;100739.69;3602183;39;20047;-65
2024/01/16 01:26:20;;;;;;;2.47;1.88;;;;;;;2.05;94.27;100748.50;3609873;39;20059;-65
2024/01/16 01:28:46;;;;;;;5.07;2.15;;;;;;;1.98;94.67;100731.06;3610691;39;20054;-65
2024/01/16 01:31:12;;;;;;;5.60;2.45;;;;;;;1.95;94.48;100730.28;3609305;39;20059;-65
2024/01/16 01:33:40;;;;;;;3.67;1.73;;;;;;;2.04;95.17;100738.84;3607087;39;20323;-65
2024/01/16 01:36:06;;;;;;;4.47;1.70;;;;;;;2.04;95.29;100736.19;3609985;39;20055;-65
2024/01/16 01:38:31;;;;;;;2.95;1.60;;;;;;;2.01;94.25;100736.28;3611024;39;20493;-64
2024/01/16 01:40:57;;;;;;;5.43;1.73;;;;;;;2.04;94.84;100735.31;3609236;39;20063;-65
2024/01/16 01:43:25;;;;;;;4.22;1.92;;;;;;;1.87;94.90;100701.31;3605407;39;20063;-64
2024/01/16 01:46:08;;;;;;;4.07;1.75;;;;;;;2.04;95.05;100736.19;3608715;39;20087;-65
2024/01/16 01:48:37;;;;;;;3.88;1.60;;;;;;;2.06;94.95;100744.97;3608689;39;20067;-64
2024/01/16 01:51:02;;;;;;;2.90;1.52;;;;;;;2.05;94.69;100742.34;3610316;39;20099;-65
2024/01/16 01:53:33;;;;;;;3.97;1.77;;;;;;;2.03;93.93;100728.25;3608285;39;20055;-65
2024/01/16 01:56:03;;;;;;;4.93;1.90;;;;;;;2.07;94.11;100741.41;3606701;39;20047;-65
2024/01/16 01:58:29;;;;;;;4.35;1.92;;;;;;;2.06;94.44;100744.97;3609101;39;20084;-64
2024/01/16 02:00:55;;;;;;;4.32;2.30;;;;;;;2.04;94.40;100752.09;3608208;39;20119;-65
2024/01/16 02:03:29;;;;;;;5.22;1.90;;;;;;;2.05;94.58;100759.13;3609868;39;20464;-65
2024/01/16 02:05:55;;;;;;;;;;;;;;;2.03;94.06;100758.31;3603036;39;20138;-64
2024/01/16 02:08:22;;;;;;;2.75;1.60;;;;;;;2.03;94.21;100766.28;3605755;39;19943;-65
2024/01/16 02:10:50;;;;;;;4.50;1.70;;;;;;;2.03;93.50;100765.38;3609371;39;20124;-65
2024/01/16 02:13:20;;;;;;;4.00;1.88;;;;;;;2.02;93.90;100769.81;3607400;39;20047;-65
2024/01/16 02:15:45;;;;;;;4.30;2.20;;;;;;;2.02;94.41;100777.75;3608081;39;20339;-65
2024/01/16 02:18:11;;;;;;;4.45;1.92;;;;;;;2.03;93.94;100766.28;3610141;39;20080;-65
2024/01/16 02:20:37;;;;;;;4.47;2.00;;;;;;;2.02;94.34;100769.81;3609473;39;20324;-65
2024/01/16 02:23:04;;;;;;;3.75;2.00;;;;;;;2.04;94.58;100772.44;3611711;39;20059;-66
2024/01/16 02:25:30;;;;;;;2.63;1.63;;;;;;;2.04;94.72;100754.75;3610753;39;20080;-65
2024/01/16 02:27:56;;;;;;;2.67;2.05;;;;;;;2.02;94.15;100756.56;3610678;39;20384;-65
2024/01/16 02:30:21;;;;;;;3.65;2.25;;;;;;;2.00;94.28;100758.41;3608459;39;20074;-65
2024/01/16 02:32:47;;;;;;;4.78;2.65;;;;;;;1.96;94.45;100764.69;3608612;39;20264;-64
2024/01/16 02:35:13;;;;;;;4.95;2.10;;;;;;;1.96;94.92;100775.28;3609895;39;20047;-64
2024/01/16 02:37:39;;;;;;;2.28;1.92;;;;;;;1.99;95.66;100767.25;3609074;39;20376;-64
2024/01/16 02:40:06;;;;;;;5.60;2.17;;;;;;;2.01;95.27;100772.53;3610718;39;20062;-64
2024/01/16 02:42:36;;;;;;;4.80;2.30;;;;;;;1.89;95.42;100752.50;3611631;39;20054;-64
2024/01/16 02:45:03;;;;;;;8.73;2.10;;;;;;;2.03;94.66;100766.28;3609576;39;20051;-64
2024/01/16 02:47:29;;;;;;;3.70;2.30;;;;;;;2.03;94.87;100766.28;3609273;39;20565;-64
2024/01/16 02:49:55;;;;;;;8.30;2.10;;;;;;;2.01;95.00;100762.78;3608915;39;20276;-64
2024/01/16 02:52:21;;;;;;;5.32;2.03;;;;;;;1.89;94.50;100736.59;3608899;39;20058;-65
2024/01/16 02:54:47;;;;;;;5.32;2.70;;;;;;;1.98;94.58;100754.91;3608955;39;20058;-64
2024/01/16 02:57:12;;;;;;;4.65;1.88;;;;;;;1.96;94.65;100751.41;3608523;39;20754;-64
2024/01/16 02:59:38;;;;;;;4.88;2.08;;;;;;;1.92;94.20;100740.97;3610078;39;20075;-64
2024/01/16 03:02:03;;;;;;;4.80;2.08;;;;;;;1.97;94.51;100761.13;3610602;39;20055;-64
2024/01/16 03:04:30;;;;;;;3.72;1.80;;;;;;;1.91;94.85;100748.03;3608677;39;20052;-65
2024/01/16 03:06:56;;;;;;;7.55;1.52;;;;;;;1.97;94.52;100761.13;3611185;39;20054;-64
2024/01/16 03:09:22;;;;;;;7.50;2.30;;;;;;;1.94;94.61;100755.91;3608556;39;20075;-64
2024/01/16 03:11:47;;;;;;;5.93;1.95;;;;;;;1.98;94.50;100762.88;3606921;39;20047;-64
2024/01/16 03:14:13;;;;;;;4.10;1.73;;;;;;;1.98;94.71;100762.88;3607244;39;20054;-64
2024/01/16 03:16:39;;;;;;;8.52;3.13;;;;;;;2.00;94.83;100755.75;3610064;39;20081;-64
2024/01/16 03:19:06;;;;;;;7.85;4.00;;;;;;;2.01;94.71;100765.44;3609393;39;20102;-65
2024/01/16 03:21:31;;;;;;;5.43;3.40;;;;;;;2.01;94.09;100760.13;3609142;39;20065;-65
2024/01/16 03:23:57;;;;;;;5.82;2.22;;;;;;;2.01;94.06;100767.22;3610560;39;20055;-65
2024/01/16 03:26:22;;;;;;;5.40;2.00;;;;;;;1.98;94.47;100762.88;3607527;39;20070;-65
2024/01/16 03:28:48;;;;;;;4.50;1.88;;;;;;;1.83;94.37;100742.94;3608144;39;20055;-65
2024/01/16 03:31:14;;;;;;;8.15;2.10;;;;;;;1.93;94.05;100770.06;3608466;39;20272;-65
2024/01/16 03:33:41;;;;;;;4.78;2.10;;;;;;;1.88;93.56;100760.50;3609376;39;20086;-65
2024/01/16 03:36:12;;;;;;;5.00;1.92;;;;;;;1.69;94.15;100739.81;3608734;39;20410;-64
2024/01/16 03:38:39;;;;;;;4.55;2.30;;;;;;;1.84;94.04;100757.94;3606672;39;20131;-64
2024/01/16 03:41:06;;;;;;;7.05;2.47;;;;;;;1.85;95.48;100757.03;3610502;39;20058;-64
2024/01/16 03:43:34;;;;;;;4.05;2.42;;;;;;;1.83;95.01;100753.53;3610549;39;20043;-64
2024/01/16 03:46:00;;;;;;;5.47;2.55;;;;;;;1.84;95.06;100743.84;3608742;39;20320;-64
2024/01/16 03:48:25;;;;;;;11.52;4.35;;;;;;;1.81;94.48;100736.81;3605577;39;20141;-65
2024/01/16 03:50:51;;;;;;;12.25;4.70;;;;;;;1.79;94.67;100748.38;3608767;39;20051;-64
2024/01/16 03:53:17;;;;;;;8.85;4.75;;;;;;;1.78;94.59;100734.25;3607579;39;20087;-64
2024/01/16 03:55:42;;;;;;;8.43;5.07;;;;;;;1.78;94.03;100746.66;3608892;39;20059;-64
2024/01/16 03:58:08;;;;;;;12.60;5.95;;;;;;;1.74;94.74;100748.47;3609534;39;20106;-64
2024/01/16 04:00:33;;;;;;;11.05;5.60;;;;;;;1.72;94.51;100745.03;3610042;39;20058;-65
2024/01/16 04:02:59;;;;;;;8.77;5.78;;;;;;;1.66;95.09;100729.28;3608909;39;20047;-64
2024/01/16 04:05:25;;;;;;;10.43;5.85;;;;;;;1.69;95.10;100738.94;3610302;39;20139;-64
2024/01/16 04:07:52;;;;;;;9.25;6.15;;;;;;;1.67;94.83;100741.63;3609390;39;20422;-64
2024/01/16 04:10:17;;;;;;;12.23;6.57;;;;;;;1.62;93.67;100736.44;3600732;39;20103;-64
2024/01/16 04:12:43;;;;;;;12.85;6.20;;;;;;;1.57;94.29;100727.75;3611355;39;20066;-64
2024/01/16 04:15:09;;;;;;;11.45;6.32;;;;;;;1.58;93.66;100726.81;3611713;39;20326;-64
2024/01/16 04:17:34;;;;;;;10.50;6.53;;;;;;;1.55;94.17;100718.97;3609510;39;20070;-64
2024/01/16 04:20:00;;;;;;;12.48;6.63;;;;;;;1.51;94.07;100709.34;3611645;39;20055;-64
2024/01/16 04:22:26;;;;;;;11.48;6.63;;;;;;;1.50;94.65;100715.56;3610862;39;20053;-64
2024/01/16 04:24:51;;;;;;;9.73;6.03;;;;;;;1.50;93.63;100710.28;3613217;39;20066;-64
2024/01/16 04:27:17;;;;;;;10.82;6.28;;;;;;;1.49;93.36;100708.56;3611127;39;20050;-64
2024/01/16 04:29:43;;;;;;;12.45;6.18;;;;;;;1.45;93.43;100703.34;3611735;39;20066;-64
2024/01/16 04:32:09;;;;;;;14.95;6.57;;;;;;;1.27;93.38;100678.22;3611820;39;20059;-64
2024/01/16 04:34:34;;;;;;;13.40;6.43;;;;;;;1.33;93.97;100686.00;3611163;39;20095;-64
2024/01/16 04:37:00;;;;;;;14.60;5.88;;;;;;;1.44;94.07;100705.16;3610810;39;20050;-65
2024/01/16 04:39:25;;;;;;;10.98;5.68;;;;;;;1.39;93.80;100707.03;3608690;39;20050;-64
2024/01/16 04:41:51;;;;;;;12.13;5.63;;;;;;;1.33;93.98;100705.44;3613513;39;20294;-64
2024/01/16 04:44:16;;;;;;;13.57;5.78;;;;;;;1.33;93.92;100704.53;3601955;39;20054;-64
2024/01/16 04:46:42;;;;;;;12.02;5.30;;;;;;;1.35;93.57;100715.97;3610562;39;20053;-64
2024/01/16 04:49:08;;;;;;;17.75;6.05;;;;;;;1.34;93.57;100707.16;3611280;39;20066;-65
2024/01/16 04:51:34;;;;;;;12.27;6.82;;;;;;;1.36;93.91;100712.41;3608711;39;20062;-64
2024/01/16 04:53:59;;;;;;;14.23;5.82;;;;;;;1.35;93.40;100718.63;3611585;39;20058;-64
2024/01/16 04:56:25;;;;;;;12.55;6.30;;;;;;;1.34;93.51;100719.53;3610080;39;20039;-64
2024/01/16 04:58:52;;;;;;;11.52;5.78;;;;;;;1.31;93.45;100716.97;3612724;39;20039;-64
2024/01/16 05:01:17;;;;;;;13.77;6.28;;;;;;;1.30;93.17;100715.22;3602008;39;20061;-64
2024/01/16 05:03:43;;;;;;;12.88;5.28;;;;;;;1.29;92.15;100714.34;3611594;39;20341;-65
2024/01/16 05:06:14;;;;;;;12.75;5.28;;;;;;;1.27;92.33;100715.28;3610955;39;20319;-65
2024/01/16 05:08:41;;;;;;;12.70;5.30;;;;;;;1.26;92.94;100708.25;3609468;39;20061;-65
2024/01/16 05:11:07;;;;;;;11.52;5.05;;;;;;;1.16;92.40;100705.84;3609524;39;20320;-65
2024/01/16 05:13:33;;;;;;;14.20;5.13;;;;;;;1.20;92.50;100708.41;3611285;39;20046;-65
2024/01/16 05:15:58;;;;;;;8.70;4.95;;;;;;;1.16;92.21;100695.25;3612552;39;20057;-63
2024/01/16 05:18:24;;;;;;;11.57;5.15;;;;;;;1.19;92.68;100701.38;3609442;39;20086;-64
2024/01/16 05:20:49;;;;;;;13.80;5.57;;;;;;;1.12;92.08;100696.25;3611543;39;20445;-65
2024/01/16 05:23:15;;;;;;;12.10;5.03;;;;;;;1.12;91.74;100695.38;3612548;39;20050;-63
2024/01/16 05:25:40;;;;;;;11.85;4.97;;;;;;;1.11;92.31;100690.97;3610569;39;20063;-63
2024/01/16 05:28:06;;;;;;;10.48;5.00;;;;;;;1.10;92.80;100691.91;3609551;39;20415;-63
2024/01/16 05:30:33;;;;;;;11.88;4.68;;;;;;;1.04;92.30;100690.25;3612536;39;20083;-63
2024/01/16 05:33:01;;;;;;;10.63;5.22;;;;;;;0.93;91.58;100674.66;3612863;39;20376;-62
2024/01/16 05:35:28;;;;;;;11.32;4.97;;;;;;;1.03;92.43;100695.59;3610563;39;20051;-63
2024/01/16 05:37:55;;;;;;;9.77;4.90;;;;;;;1.02;92.38;100694.75;3611072;39;20295;-63
2024/01/16 05:40:24;;;;;;;9.40;4.97;;;;;;;1.02;92.31;100689.44;3611182;39;20047;-63
2024/01/16 05:42:50;;;;;;;10.60;5.00;;;;;;;0.99;91.86;100686.00;3612826;39;20042;-63
2024/01/16 05:45:16;;;;;;;11.57;4.63;;;;;;;0.95;91.01;100687.84;3610215;39;20063;-64
2024/01/16 05:47:42;;;;;;;11.32;4.60;;;;;;;0.92;91.83;100688.81;3609834;39;20059;-64
2024/01/16 05:50:08;;;;;;;12.65;4.78;;;;;;;0.91;91.39;100684.41;3612723;39;20410;-64
2024/01/16 05:52:35;;;;;;;7.90;4.57;;;;;;;0.66;91.21;100647.09;3611508;39;20089;-63
2024/01/16 05:55:02;;;;;;;12.50;5.40;;;;;;;0.85;91.10;100681.03;3611541;39;20067;-63
2024/01/16 05:57:33;;;;;;;13.02;4.32;;;;;;;0.84;90.98;100681.94;3609257;39;20059;-64
2024/01/16 05:59:59;;;;;;;10.02;4.60;;;;;;;0.80;90.86;100681.16;3609891;39;20055;-64
2024/01/16 06:02:24;;;;;;;11.57;4.25;;;;;;;0.77;90.73;100677.72;3611297;39;20070;-63
2024/01/16 06:04:51;;;;;;;12.25;4.75;;;;;;;0.73;91.17;100669.00;3601200;39;20050;-64
2024/01/16 06:07:16;;;;;;;11.77;4.78;;;;;;;0.77;90.73;100683.88;3612702;39;20135;-63
2024/01/16 06:09:42;;;;;;;13.77;4.85;;;;;;;0.72;90.71;100685.75;3610704;39;20059;-64
2024/01/16 06:12:08;;;;;;;10.02;4.28;;;;;;;0.72;90.08;100685.75;3610995;39;20051;-64
2024/01/16 06:14:34;;;;;;;12.57;4.15;;;;;;;0.61;90.79;100667.50;3611378;39;20116;-63
2024/01/16 06:17:01;;;;;;;8.45;4.50;;;;;;;0.65;90.90;100669.16;3611803;39;20346;-63
2024/01/16 06:19:26;;;;;;;7.97;4.18;;;;;;;0.64;91.13;100664.78;3608252;39;20376;-63
2024/01/16 06:21:53;;;;;;;11.68;4.47;;;;;;;0.62;91.04;100661.28;3612462;39;20057;-64
2024/01/16 06:24:18;;;;;;;10.70;4.45;;;;;;;0.63;90.84;100670.97;3612471;39;20059;-63
2024/01/16 06:26:44;;;;;;;11.88;4.90;;;;;;;0.61;90.48;100671.94;3609987;39;20051;-63
2024/01/16 06:29:09;;;;;;;12.63;5.03;;;;;;;0.58;90.47;100672.00;3611752;39;20051;-63
2024/01/16 06:31:35;;;;;;;12.63;4.68;;;;;;;0.58;90.53;100667.56;3611873;39;20387;-63
2024/01/16 06:34:01;;;;;;;10.70;4.00;;;;;;;0.61;89.83;100669.28;3611881;39;20054;-63
2024/01/16 06:36:26;;;;;;;13.48;4.30;;;;;;;0.64;89.56;100677.16;3611117;39;20059;-63
2024/01/16 06:38:52;;;;;;;11.80;4.75;;;;;;;0.60;88.69;100676.34;3609684;39;20500;-63
2024/01/16 06:41:18;;;;;;;11.02;4.30;;;;;;;0.56;89.01;100669.38;3611852;39;20046;-63
2024/01/16 06:43:43;;;;;;;10.20;4.47;;;;;;;0.54;89.54;100668.56;3605431;39;20095;-63
2024/01/16 06:46:09;;;;;;;18.02;4.68;;;;;;;0.51;89.42;100670.38;3610935;39;20098;-64
2024/01/16 06:48:39;;;;;;;9.60;4.63;;;;;;;0.53;88.64;100674.72;3607572;39;20499;-64
2024/01/16 06:51:05;;;;;;;14.60;4.55;;;;;;;0.45;87.70;100671.41;3610448;39;20054;-64
2024/01/16 06:53:31;;;;;;;11.05;3.90;;;;;;;0.45;87.92;100674.06;3608198;39;20133;-65
2024/01/16 06:55:56;;;;;;;7.13;3.70;;;;;;;0.41;87.79;100680.28;3610437;39;20058;-65
2024/01/16 06:58:22;;;;;;;11.32;5.43;;;;;;;0.46;88.55;100686.38;3607963;39;20303;-65
2024/01/16 07:00:48;;;;;;;9.73;4.00;;;;;;;0.31;87.26;100653.19;3609055;39;20051;-65
2024/01/16 07:03:14;;;;;;;14.02;6.25;;;;;;;0.46;86.62;100686.38;3611355;39;20050;-65
2024/01/16 07:05:40;;;;;;;13.65;6.00;;;;;;;0.45;87.71;100687.28;3597451;39;20090;-64
2024/01/16 07:08:07;;;;;;;9.77;4.20;;;;;;;0.46;87.00;100699.59;3612091;39;20487;-64
2024/01/16 07:10:33;;;;;;;6.63;3.60;;;;;;;0.45;86.64;100697.84;3607458;39;20398;-65
2024/01/16 07:12:59;;;;;;;8.13;3.92;;;;;;;0.43;87.36;100692.59;3603394;39;20055;-64
2024/01/16 07:15:25;;;;;;;9.88;4.25;;;;;;;0.41;86.28;100707.63;3608754;39;20055;-65
2024/01/16 07:17:51;;;;;;;8.77;3.63;;;;;;;0.45;86.27;100698.72;3604418;39;20062;-65
2024/01/16 07:20:16;;;;;;;7.22;4.05;;;;;;;0.41;87.29;100701.44;3608897;39;20070;-65
2024/01/16 07:22:42;;;;;;;5.18;3.30;;;;;;;0.41;86.97;100702.34;3606772;39;21206;-65
2024/01/16 07:25:08;;;;;;;8.07;3.70;;;;;;;0.37;85.87;100697.13;3609770;39;20047;-65
2024/01/16 07:27:34;;;;;;;9.70;3.60;;;;;;;0.41;86.74;100702.34;3607255;39;20093;-64
2024/01/16 07:30:00;;;;;;;11.63;3.90;;;;;;;0.44;86.48;100704.03;3607743;39;20062;-64
2024/01/16 07:32:26;;;;;;;11.13;4.10;;;;;;;0.42;85.81;100698.78;3607915;39;20452;-65
2024/01/16 07:34:52;;;;;;;9.45;3.40;;;;;;;0.46;86.09;100704.88;3606762;39;20050;-64
2024/01/16 07:37:18;;;;;;;12.68;3.75;;;;;;;0.30;85.70;100671.75;3606071;39;20059;-64
2024/01/16 07:39:44;;;;;;;9.63;4.00;;;;;;;0.44;85.78;100709.31;3608721;39;20403;-65
2024/01/16 07:42:10;;;;;;;6.85;3.60;;;;;;;0.28;83.95;100671.75;3607341;39;20098;-65
2024/01/16 07:44:36;;;;;;;10.18;3.70;;;;;;;0.42;84.49;100709.38;3608470;39;20124;-64
2024/01/16 07:47:03;;;;;;;9.07;3.65;;;;;;;0.42;84.54;100687.34;3608777;39;20059;-65
2024/01/16 07:49:28;;;;;;;8.90;4.45;;;;;;;0.44;85.92;100704.03;3608433;39;20062;-65
2024/01/16 07:51:54;;;;;;;11.15;4.05;;;;;;;0.44;84.32;100712.84;3610586;39;20051;-65
2024/01/16 07:54:20;;;;;;;10.82;3.80;;;;;;;0.49;84.47;100709.22;3608397;39;20057;-65
2024/01/16 07:56:45;;;;;;;9.50;4.43;;;;;;;0.47;85.11;100712.75;3607239;39;20076;-65
2024/01/16 07:59:11;;;;;;;10.18;3.85;;;;;;;0.32;84.93;100691.06;3610477;39;20055;-65
2024/01/16 08:01:37;;;;;;;6.35;3.65;;;;;;;0.52;84.66;100725.91;3610240;39;20421;-65
2024/01/16 08:04:03;;;;;;;11.07;5.78;;;;;;;0.49;84.30;100725.09;3607543;39;20055;-65
2024/01/16 08:06:32;;;;;;;6.22;4.03;;;;;;;0.53;84.28;100722.34;3606045;39;20656;-65
2024/01/16 08:08:57;;;;;;;8.85;3.58;;;;;;;0.50;84.31;100732.97;3607569;39;20427;-65
2024/01/16 08:11:23;;;;;;;9.93;3.72;;;;;;;0.46;84.58;100726.91;3609860;39;20047;-65
2024/01/16 08:13:49;;;;;;;11.77;4.43;;;;;;;0.46;83.75;100720.75;3608980;39;20113;-65
2024/01/16 08:16:14;;;;;;;11.10;3.78;;;;;;;0.48;84.84;100718.94;3607315;39;20058;-65
2024/01/16 08:18:40;;;;;;;5.75;4.10;;;;;;;0.52;83.24;100723.25;3594819;39;20085;-64
2024/01/16 08:21:07;;;;;;;13.00;3.65;;;;;;;0.49;83.83;100725.97;3606001;39;20069;-65
2024/01/16 08:23:34;;;;;;;7.57;4.07;;;;;;;0.48;84.28;100718.94;3607174;39;20288;-65
2024/01/16 08:26:00;;;;;;;8.80;3.88;;;;;;;0.49;84.79;100725.97;3606468;39;20395;-65
2024/01/16 08:28:26;;;;;;;11.02;3.70;;;;;;;0.56;83.87;100731.97;3608645;39;20062;-64
2024/01/16 08:30:52;;;;;;;9.85;3.60;;;;;;;0.58;83.29;100735.47;3610700;39;20063;-65
2024/01/16 08:33:18;;;;;;;5.80;3.45;;;;;;;0.56;84.63;100731.97;3608601;39;20062;-65
2024/01/16 08:35:44;;;;;;;9.77;3.95;;;;;;;0.59;83.80;100737.19;3604448;39;20047;-65
2024/01/16 08:38:10;;;;;;;18.60;7.82;;;;;;;0.63;83.16;100733.56;3606570;39;20299;-64
2024/01/16 08:40:35;;;;;;;24.98;13.70;;;;;;;0.64;83.37;100736.19;3606400;39;20165;-65
2024/01/16 08:43:01;;;;;;;20.08;9.85;;;;;;;0.61;83.58;100741.56;3607365;39;20050;-65
2024/01/16 08:45:27;;;;;;;9.02;6.35;;;;;;;0.60;83.02;100739.84;3606077;39;20065;-65
2024/01/16 08:47:52;;;;;;;13.63;4.72;;;;;;;0.62;83.94;100732.72;3607530;39;20055;-67
2024/01/16 08:50:18;;;;;;;8.23;4.07;;;;;;;0.63;84.31;100731.78;3606791;39;20059;-67
2024/01/16 08:52:44;;;;;;;12.75;4.10;;;;;;;0.65;82.98;100737.06;3609690;39;20303;-66
2024/01/16 08:55:09;;;;;;;10.18;3.78;;;;;;;0.66;83.39;100734.38;3612539;39;20299;-66
2024/01/16 08:57:37;;;;;;;7.93;3.78;;;;;;;0.68;83.16;100734.34;3607187;39;20307;-64
2024/01/16 09:00:05;;;;;;;7.57;3.90;;;;;;;0.69;82.73;100731.66;3608331;39;20303;-64
2024/01/16 09:02:30;;;;;;;8.18;4.43;;;;;;;0.65;82.71;100732.66;3608187;39;20059;-67
2024/01/16 09:04:58;;;;;;;12.07;3.88;;;;;;;0.68;83.74;100729.94;3610618;39;20059;-64
2024/01/16 09:07:24;;;;;;;9.38;3.88;;;;;;;0.74;82.64;100736.00;3609994;39;20051;-66
2024/01/16 09:09:50;;;;;;;9.18;3.92;;;;;;;0.76;83.13;100728.88;3608769;39;20055;-64
2024/01/16 09:12:16;;;;;;;10.52;3.75;;;;;;;0.76;82.19;100735.06;3608651;39;20062;-64
2024/01/16 09:14:41;;;;;;;8.65;4.00;;;;;;;0.75;83.13;100729.78;3599664;39;21818;-64
2024/01/16 09:17:07;;;;;;;13.57;4.25;;;;;;;0.75;82.55;100728.00;3606735;39;20192;-65
2024/01/16 09:19:33;;;;;;;7.45;3.67;;;;;;;0.92;81.45;100732.94;3608038;39;20326;-65
2024/01/16 09:21:59;;;;;;;9.07;3.70;;;;;;;0.92;82.10;100732.94;3608693;39;20051;-66
2024/01/16 09:24:25;;;;;;;8.32;3.83;;;;;;;0.92;80.68;100725.00;3608523;39;20066;-66
2024/01/16 09:26:50;;;;;;;8.80;3.67;;;;;;;0.91;81.71;100728.53;3607309;39;20055;-64
2024/01/16 09:29:16;;;;;;;8.18;3.65;;;;;;;0.94;81.75;100723.16;3612286;39;20047;-67
2024/01/16 09:31:42;;;;;;;9.18;4.05;;;;;;;0.91;81.26;100716.16;3609336;39;20563;-67
2024/01/16 09:34:08;;;;;;;7.47;3.97;;;;;;;1.12;81.32;100733.31;3608872;39;20039;-64
2024/01/16 09:36:36;;;;;;;7.97;3.80;;;;;;;0.85;81.31;100678.38;3610520;39;20055;-67
2024/01/16 09:39:07;;;;;;;7.93;3.92;;;;;;;1.20;80.22;100724.28;3609728;39;20053;-67
2024/01/16 09:41:34;;;;;;;8.82;3.70;;;;;;;1.16;80.47;100710.28;3607248;39;20084;-64
2024/01/16 09:44:00;;;;;;;12.55;3.67;;;;;;;1.13;79.94;100708.56;3606485;39;20053;-64
2024/01/16 09:46:27;;;;;;;11.40;4.20;;;;;;;1.18;80.27;100719.06;3608586;39;20344;-65
2024/01/16 09:48:55;;;;;;;10.75;4.35;;;;;;;1.24;79.40;100720.66;3608263;39;20051;-66
2024/01/16 09:51:21;;;;;;;7.55;3.78;;;;;;;1.26;78.91;100724.16;3610045;39;20059;-66
2024/01/16 09:53:47;;;;;;;7.70;3.85;;;;;;;1.25;79.28;100722.41;3610371;39;20085;-66
2024/01/16 09:56:21;;;;;;;10.20;4.97;;;;;;;1.31;79.29;100716.97;3608765;39;20110;-67
2024/01/16 09:58:52;;;;;;;10.68;4.90;;;;;;;1.43;79.91;100719.31;3605723;39;20507;-66
2024/01/16 10:01:20;;;;;;;10.95;4.18;;;;;;;1.49;79.46;100705.91;3607704;39;20104;-66
2024/01/16 10:03:45;;;;;;;9.77;4.25;;;;;;;1.55;78.36;100700.41;3607182;39;20410;-67
2024/01/16 10:06:15;;;;;;;7.25;3.50;;;;;;;1.54;78.53;100708.41;3610028;39;20154;-67
2024/01/16 10:08:41;;;;;;;6.38;3.40;;;;;;;1.69;77.68;100701.84;3610082;39;20432;-67
2024/01/16 10:11:06;;;;;;;7.97;3.78;;;;;;;1.65;77.24;100685.16;3607249;39;20309;-67
2024/01/16 10:13:34;;;;;;;7.70;3.55;;;;;;;1.81;77.28;100704.16;3609515;39;20061;-66
2024/01/16 10:15:59;;;;;;;6.63;3.70;;;;;;;1.94;76.09;100702.91;3607340;39;20071;-65
2024/01/16 10:18:33;;;;;;;8.00;4.57;;;;;;;2.03;75.51;100691.16;3609382;39;20053;-65
2024/01/16 10:21:00;;;;;;;9.50;3.95;;;;;;;2.15;75.12;100696.09;3609220;39;20091;-65
2024/01/16 10:23:32;;;;;;;9.23;4.78;;;;;;;2.34;76.31;100701.72;3606697;39;20047;-65
2024/01/16 10:26:12;;;;;;;6.93;3.90;;;;;;;2.34;74.28;100664.59;3607547;39;20043;-65
2024/01/16 10:28:42;;;;;;;7.07;3.80;;;;;;;2.64;74.70;100677.84;3607333;39;20055;-65
2024/01/16 10:31:15;;;;;;;7.40;3.55;;;;;;;2.67;72.74;100656.50;3607022;39;20063;-66
2024/01/16 10:33:41;;;;;;;10.27;3.90;;;;;;;3.03;72.79;100681.84;3603071;39;20119;-65
2024/01/16 10:36:22;;;;;;;8.10;3.70;;;;;;;3.19;72.56;100676.88;3605900;39;20285;-65
2024/01/16 10:38:47;;;;;;;7.60;3.72;;;;;;;3.40;70.94;100675.28;3606038;39;20066;-65
2024/01/16 10:41:24;;;;;;;5.70;3.20;;;;;;;3.51;70.22;100666.06;3608203;39;20422;-66
2024/01/16 10:44:07;;;;;;;7.53;3.67;;;;;;;3.62;70.17;100663.91;3605324;39;20390;-65
2024/01/16 10:46:33;;;;;;;9.23;3.53;;;;;;;3.67;68.95;100673.44;3609769;39;20058;-64
2024/01/16 10:49:05;;;;;;;8.98;3.55;;;;;;;3.81;68.23;100669.44;3605400;39;20050;-65
2024/01/16 10:51:32;;;;;;;5.00;3.92;;;;;;;3.89;68.04;100667.34;3611061;39;20049;-65
2024/01/16 10:54:14;;;;;;;6.20;3.22;;;;;;;3.97;66.87;100680.38;3609049;39;20382;-65
2024/01/16 10:56:48;;;;;;;7.68;3.38;;;;;;;4.09;66.63;100674.56;3610391;39;20046;-65
2024/01/16 10:59:48;;;;;;;6.40;3.30;;;;;;;4.14;65.80;100670.81;3611697;39;20046;-65
2024/01/16 11:02:20;;;;;;;7.68;3.38;;;;;;;4.21;66.91;100663.47;3608829;39;20096;-65
2024/01/16 11:04:49;;;;;;;8.05;3.35;;;;;;;4.40;65.98;100663.63;3604441;39;20063;-66
2024/01/16 11:07:17;;;;;;;8.25;3.67;;;;;;;4.54;65.77;100661.31;3607960;39;20283;-65
2024/01/16 11:09:44;;;;;;;7.65;3.50;;;;;;;4.50;64.31;100632.19;3608087;39;20084;-65
2024/01/16 11:12:16;;;;;;;6.22;3.65;;;;;;;4.72;63.58;100667.69;3607590;39;20067;-65
2024/01/16 11:14:47;;;;;;;6.80;3.95;;;;;;;4.74;63.80;100657.84;3606451;39;20359;-66
2024/01/16 11:17:18;;;;;;;5.72;3.47;;;;;;;4.89;63.81;100657.22;3611011;39;20047;-65
2024/01/16 11:19:48;;;;;;;9.60;3.90;;;;;;;4.94;63.39;100648.16;3608790;39;20384;-66
2024/01/16 11:22:18;;;;;;;7.32;4.03;;;;;;;5.12;62.87;100653.59;3608164;39;20066;-66
2024/01/16 11:24:45;;;;;;;6.85;3.33;;;;;;;5.30;61.56;100641.31;3608034;39;20055;-66
2024/01/16 11:27:23;;;;;;;7.28;3.63;;;;;;;5.35;61.17;100644.63;3609856;39;20116;-66
2024/01/16 11:29:52;;;;;;;6.22;3.28;;;;;;;5.45;61.12;100644.22;3605492;39;20111;-66